createdAt,value
2019-01-27T00:02:27.540Z,97260.01
2019-01-27T00:04:56.307Z,97256.06
2019-01-27T00:07:24.987Z,97249.47
2019-01-27T00:09:53.695Z,97244.08
2019-01-27T00:12:22.536Z,97236.05
2019-01-27T00:14:51.212Z,97244.20
2019-01-27T00:17:19.967Z,97237.77
2019-01-27T00:19:48.729Z,97233.55
2019-01-27T00:22:18.189Z,97222.19
2019-01-27T00:24:46.969Z,97211.05
2019-01-27T00:27:16.168Z,97210.72
2019-01-27T00:29:44.927Z,97203.87
2019-01-27T00:32:13.706Z,97203.52
2019-01-27T00:34:42.769Z,97198.59
2019-01-27T00:37:11.648Z,97187.83
2019-01-27T00:39:40.375Z,97183.65
2019-01-27T00:42:09.138Z,97180.55
2019-01-27T00:44:37.815Z,97169.05
2019-01-27T00:47:06.711Z,97172.66
2019-01-27T00:49:35.472Z,97167.48
2019-01-27T00:52:04.811Z,97159.38
2019-01-27T00:54:33.590Z,97158.41
2019-01-27T00:57:02.367Z,97157.80
2019-01-27T00:59:31.229Z,97150.77
2019-01-27T01:02:00.319Z,97139.27
2019-01-27T01:04:29.081Z,97138.20
2019-01-27T01:06:57.792Z,97131.17
2019-01-27T01:09:26.828Z,97125.88
2019-01-27T01:11:56.325Z,97124.80
2019-01-27T01:14:25.096Z,97123.98
2019-01-27T01:16:53.796Z,97119.67
2019-01-27T01:19:22.650Z,97123.61
2019-01-27T01:21:51.556Z,97112.14
2019-01-27T01:24:20.740Z,97113.09
2019-01-27T01:26:49.523Z,97102.56
2019-01-27T01:29:18.624Z,97101.62
2019-01-27T01:31:47.386Z,97092.14
2019-01-27T01:34:16.151Z,97084.72
2019-01-27T01:36:45.185Z,97086.03
2019-01-27T01:39:13.969Z,97073.95
2019-01-27T01:41:42.650Z,97065.96
2019-01-27T01:44:11.434Z,97068.09
2019-01-27T01:46:40.121Z,97070.04
2019-01-27T01:49:09.001Z,97059.52
2019-01-27T01:51:37.756Z,97062.02
2019-01-27T01:54:06.502Z,97054.72
2019-01-27T01:56:35.399Z,97055.33
2019-01-27T01:59:04.079Z,97050.61
2019-01-27T02:01:32.843Z,97036.41
2019-01-27T02:04:01.803Z,97031.38
2019-01-27T02:06:30.468Z,97018.22
2019-01-27T02:08:59.231Z,97011.64
2019-01-27T02:11:28.004Z,97003.41
2019-01-27T02:13:56.872Z,96997.17
2019-01-27T02:16:25.887Z,96984.98
2019-01-27T02:18:54.985Z,96987.62
2019-01-27T02:21:23.746Z,96984.15
2019-01-27T02:23:52.589Z,96974.94
2019-01-27T02:26:21.394Z,96966.20
2019-01-27T02:28:50.087Z,96958.27
2019-01-27T02:31:18.837Z,96954.02
2019-01-27T02:33:47.531Z,96956.89
2019-01-27T02:36:16.278Z,96953.41
2019-01-27T02:38:45.126Z,96950.69
2019-01-27T02:41:13.806Z,96934.28
2019-01-27T02:43:42.547Z,96928.51
2019-01-27T02:46:11.364Z,96919.81
2019-01-27T02:48:40.115Z,96913.38
2019-01-27T02:51:08.891Z,96909.16
2019-01-27T02:53:37.657Z,96908.45
2019-01-27T02:56:06.408Z,96895.38
2019-01-27T02:58:35.193Z,96894.16
2019-01-27T03:01:04.509Z,96885.56
2019-01-27T03:03:33.659Z,96869.02
2019-01-27T03:06:20.115Z,96866.25
2019-01-27T03:08:52.588Z,96858.86
2019-01-27T03:11:21.445Z,96848.67
2019-01-27T03:13:49.247Z,96842.31
2019-01-27T03:16:16.998Z,96840.49
2019-01-27T03:18:44.751Z,96833.89
2019-01-27T03:21:12.973Z,96829.02
2019-01-27T03:23:40.713Z,96819.36
2019-01-27T03:26:08.474Z,96809.78
2019-01-27T03:28:36.232Z,96802.78
2019-01-27T03:31:04.079Z,96798.84
2019-01-27T03:33:31.851Z,96790.33
2019-01-27T03:35:59.666Z,96799.68
2019-01-27T03:38:27.487Z,96797.61
2019-01-27T03:40:55.239Z,96791.78
2019-01-27T03:43:22.988Z,96786.63
2019-01-27T03:45:50.770Z,96785.20
2019-01-27T03:48:18.797Z,96776.33
2019-01-27T03:50:46.546Z,96768.66
2019-01-27T03:53:14.299Z,96764.98
2019-01-27T03:55:42.296Z,96770.60
2019-01-27T03:58:10.094Z,96764.56
2019-01-27T04:00:37.894Z,96761.87
2019-01-27T04:03:05.662Z,96757.55
2019-01-27T04:05:33.416Z,96754.81
2019-01-27T04:08:01.213Z,96745.78
2019-01-27T04:10:29.067Z,96751.34
2019-01-27T04:12:56.825Z,96747.53
2019-01-27T04:15:24.573Z,96746.77
2019-01-27T04:17:52.336Z,96737.55
2019-01-27T04:20:20.327Z,96729.44
2019-01-27T04:22:48.174Z,96731.87
2019-01-27T04:25:16.893Z,96726.95
2019-01-27T04:27:44.637Z,96720.08
2019-01-27T04:30:13.988Z,96719.45
2019-01-27T04:32:41.718Z,96718.43
2019-01-27T04:35:10.107Z,96703.88
2019-01-27T04:37:38.257Z,96712.95
2019-01-27T04:40:06.740Z,96697.16
2019-01-27T04:42:34.504Z,96697.38
2019-01-27T04:45:02.264Z,96688.45
2019-01-27T04:47:30.344Z,96677.41
2019-01-27T04:49:58.210Z,96670.20
2019-01-27T04:52:25.958Z,96661.55
2019-01-27T04:54:53.721Z,96657.67
2019-01-27T04:57:21.472Z,96662.78
2019-01-27T04:59:49.244Z,96656.86
2019-01-27T05:02:17.005Z,96653.86
2019-01-27T05:04:44.744Z,96650.83
2019-01-27T05:07:12.511Z,96648.59
2019-01-27T05:09:40.263Z,96643.00
2019-01-27T05:12:08.074Z,96639.31
2019-01-27T05:14:35.822Z,96640.08
2019-01-27T05:17:03.568Z,96633.36
2019-01-27T05:19:31.346Z,96639.09
2019-01-27T05:21:59.098Z,96633.43
2019-01-27T05:24:26.860Z,96639.05
2019-01-27T05:26:54.608Z,96625.53
2019-01-27T05:29:22.423Z,96625.89
2019-01-27T05:31:50.301Z,96623.19
2019-01-27T05:34:18.380Z,96620.81
2019-01-27T05:36:47.201Z,96624.00
2019-01-27T05:39:15.164Z,96622.28
2019-01-27T05:41:42.910Z,96624.44
2019-01-27T05:44:10.657Z,96624.07
2019-01-27T05:46:38.732Z,96630.17
2019-01-27T05:49:06.579Z,96631.02
2019-01-27T05:51:34.329Z,96618.55
2019-01-27T05:54:02.446Z,96614.92
2019-01-27T05:56:30.580Z,96608.30
2019-01-27T05:58:58.325Z,96596.02
2019-01-27T06:01:26.425Z,96589.98
2019-01-27T06:03:54.198Z,96594.53
2019-01-27T06:06:21.965Z,96592.25
2019-01-27T06:08:50.592Z,96589.77
2019-01-27T06:11:18.337Z,96601.16
2019-01-27T06:13:46.191Z,96598.72
2019-01-27T06:16:14.005Z,96607.78
2019-01-27T06:18:41.762Z,96601.64
2019-01-27T06:21:09.504Z,96611.70
2019-01-27T06:23:37.278Z,96581.75
2019-01-27T06:26:05.118Z,96577.40
2019-01-27T06:28:32.885Z,96586.65
2019-01-27T06:31:00.926Z,96581.08
2019-01-27T06:33:51.398Z,96573.52
2019-01-27T06:36:19.189Z,96571.05
2019-01-27T06:38:46.952Z,96575.50
2019-01-27T06:41:14.810Z,96567.95
2019-01-27T06:43:42.571Z,96574.83
2019-01-27T06:46:10.336Z,96563.05
2019-01-27T06:48:38.104Z,96552.41
2019-01-27T06:51:05.869Z,96550.73
2019-01-27T06:53:33.629Z,96547.94
2019-01-27T06:56:01.705Z,96542.03
2019-01-27T06:58:48.561Z,96544.83
2019-01-27T07:01:25.955Z,96536.19
2019-01-27T07:04:06.763Z,96534.55
2019-01-27T07:06:47.134Z,96535.41
2019-01-27T07:09:28.193Z,96530.69
2019-01-27T07:12:07.872Z,96533.65
2019-01-27T07:14:49.917Z,96521.97
2019-01-27T07:17:52.166Z,96521.43
2019-01-27T07:20:39.014Z,96525.64
2019-01-27T07:23:33.741Z,96523.66
2019-01-27T07:26:10.154Z,96514.39
2019-01-27T07:28:46.781Z,96522.64
2019-01-27T07:31:32.765Z,96512.69
2019-01-27T07:34:25.175Z,96516.08
2019-01-27T07:36:58.809Z,96511.14
2019-01-27T07:39:39.152Z,96511.11
2019-01-27T07:42:18.983Z,96511.45
2019-01-27T07:45:02.645Z,96510.54
2019-01-27T07:47:46.046Z,96510.28
2019-01-27T07:50:39.751Z,96510.54
2019-01-27T07:53:22.775Z,96510.47
2019-01-27T07:56:00.679Z,96512.07
2019-01-27T07:58:43.785Z,96506.59
2019-01-27T08:01:39.516Z,96493.52
2019-01-27T08:04:25.997Z,96490.74
2019-01-27T08:07:11.597Z,96487.16
2019-01-27T08:09:58.450Z,96490.81
2019-01-27T08:12:46.128Z,96488.55
2019-01-27T08:15:32.986Z,96490.95
2019-01-27T08:18:18.197Z,96485.77
2019-01-27T08:21:04.503Z,96491.50
2019-01-27T08:23:50.040Z,96489.42
2019-01-27T08:26:31.579Z,96494.75
2019-01-27T08:29:14.633Z,96487.77
2019-01-27T08:32:11.065Z,96495.98
2019-01-27T08:34:57.937Z,96495.44
2019-01-27T08:37:50.680Z,96488.53
2019-01-27T08:40:32.285Z,96489.84
2019-01-27T08:43:15.702Z,96482.36
2019-01-27T08:46:14.684Z,96482.91
2019-01-27T08:48:42.429Z,96487.41
2019-01-27T08:51:10.453Z,96485.48
2019-01-27T08:53:38.204Z,96482.05
2019-01-27T08:56:05.966Z,96476.86
2019-01-27T08:58:33.753Z,96468.76
2019-01-27T09:01:14.736Z,96476.57
2019-01-27T09:03:55.067Z,96477.74
2019-01-27T09:06:30.780Z,96468.94
2019-01-27T09:09:17.976Z,96476.27
2019-01-27T09:12:08.028Z,96472.40
2019-01-27T09:14:50.841Z,96470.61
2019-01-27T09:17:52.833Z,96461.25
2019-01-27T09:20:34.395Z,96462.70
2019-01-27T09:23:21.526Z,96457.08
2019-01-27T09:26:07.283Z,96462.97
2019-01-27T09:28:52.505Z,96458.69
2019-01-27T09:31:25.780Z,96449.11
2019-01-27T09:34:13.243Z,96455.50
2019-01-27T09:37:12.240Z,96461.23
2019-01-27T09:39:50.480Z,96457.51
2019-01-27T09:42:36.497Z,96449.53
2019-01-27T09:45:23.417Z,96454.23
2019-01-27T09:48:11.861Z,96452.64
2019-01-27T09:50:52.726Z,96450.24
2019-01-27T09:53:26.459Z,96453.64
2019-01-27T09:56:13.292Z,96453.35
2019-01-27T09:59:06.119Z,96460.39
2019-01-27T10:01:51.869Z,96465.17
2019-01-27T10:04:34.645Z,96460.53
2019-01-27T10:07:19.555Z,96463.09
2019-01-27T10:10:12.136Z,96471.42
2019-01-27T10:13:11.188Z,96469.81
2019-01-27T10:16:06.955Z,96469.20
2019-01-27T10:18:45.529Z,96467.73
2019-01-27T10:21:31.628Z,96460.77
2019-01-27T10:24:06.852Z,96464.28
2019-01-27T10:27:06.321Z,96458.05
2019-01-27T10:29:44.261Z,96456.19
2019-01-27T10:32:34.084Z,96453.14
2019-01-27T10:35:26.289Z,96449.11
2019-01-27T10:38:05.417Z,96450.56
2019-01-27T10:40:40.604Z,96450.83
2019-01-27T10:43:27.542Z,96446.66
2019-01-27T10:46:07.102Z,96437.31
2019-01-27T10:48:42.337Z,96439.88
2019-01-27T10:51:21.777Z,96433.45
2019-01-27T10:54:04.919Z,96426.24
2019-01-27T10:56:50.507Z,96437.25
2019-01-27T10:59:34.527Z,96429.95
2019-01-27T11:02:18.673Z,96431.27
2019-01-27T11:05:04.921Z,96417.19
2019-01-27T11:07:46.357Z,96411.08
2019-01-27T11:10:23.993Z,96409.41
2019-01-27T11:13:02.370Z,96407.73
2019-01-27T11:15:54.572Z,96405.73
2019-01-27T11:18:47.546Z,96397.57
2019-01-27T11:21:37.816Z,96392.36
2019-01-27T11:24:39.729Z,96386.17
2019-01-27T11:27:33.062Z,96377.88
2019-01-27T11:30:10.161Z,96373.39
2019-01-27T11:33:06.098Z,96369.02
2019-01-27T11:36:04.858Z,96378.17
2019-01-27T11:38:52.009Z,96369.65
2019-01-27T11:41:37.867Z,96364.33
2019-01-27T11:44:33.146Z,96361.02
2019-01-27T11:47:32.114Z,96358.11
2019-01-27T11:50:12.015Z,96353.55
2019-01-27T11:52:55.155Z,96353.28
2019-01-27T11:55:22.936Z,96358.39
2019-01-27T11:57:50.759Z,96348.50
2019-01-27T12:00:21.519Z,96348.70
2019-01-27T12:02:49.297Z,96352.70
2019-01-27T12:05:17.066Z,96342.97
2019-01-27T12:07:44.827Z,96333.08
2019-01-27T12:10:13.659Z,96334.06
2019-01-27T12:12:41.414Z,96323.34
2019-01-27T12:15:10.998Z,96323.74
2019-01-27T12:17:38.761Z,96321.97
2019-01-27T12:20:06.838Z,96327.05
2019-01-27T12:22:34.677Z,96320.02
2019-01-27T12:25:02.429Z,96317.05
2019-01-27T12:27:30.195Z,96309.27
2019-01-27T12:29:57.955Z,96310.06
2019-01-27T12:32:26.040Z,96303.64
2019-01-27T12:34:53.810Z,96307.39
2019-01-27T12:37:21.878Z,96308.12
2019-01-27T12:39:49.645Z,96298.75
2019-01-27T12:42:17.421Z,96298.22
2019-01-27T12:44:45.621Z,96304.22
2019-01-27T12:47:13.389Z,96294.73
2019-01-27T12:49:41.153Z,96299.11
2019-01-27T12:52:09.300Z,96299.73
2019-01-27T12:54:37.053Z,96299.64
2019-01-27T12:57:04.929Z,96294.78
2019-01-27T12:59:32.987Z,96291.27
2019-01-27T13:02:00.755Z,96288.79
2019-01-27T13:04:28.523Z,96290.10
2019-01-27T13:06:56.277Z,96291.84
2019-01-27T13:09:24.059Z,96285.47
2019-01-27T13:11:51.819Z,96288.31
2019-01-27T13:14:19.580Z,96303.36
2019-01-27T13:16:47.358Z,96288.45
2019-01-27T13:19:15.108Z,96292.08
2019-01-27T13:21:42.896Z,96290.00
2019-01-27T13:24:10.792Z,96291.05
2019-01-27T13:26:38.572Z,96289.88
2019-01-27T13:29:06.338Z,96276.95
2019-01-27T13:31:34.108Z,96280.02
2019-01-27T13:34:02.638Z,96277.05
2019-01-27T13:36:31.084Z,96275.73
2019-01-27T13:38:58.841Z,96277.38
2019-01-27T13:41:26.609Z,96280.01
2019-01-27T13:43:54.358Z,96275.00
2019-01-27T13:46:22.136Z,96274.95
2019-01-27T13:48:49.897Z,96281.09
2019-01-27T13:51:17.966Z,96288.20
2019-01-27T13:53:45.752Z,96277.05
2019-01-27T13:56:13.520Z,96279.68
2019-01-27T13:58:41.316Z,96278.48
2019-01-27T14:01:09.144Z,96274.73
2019-01-27T14:03:37.198Z,96283.98
2019-01-27T14:06:05.041Z,96284.09
2019-01-27T14:08:32.808Z,96275.16
2019-01-27T14:11:00.937Z,96273.41
2019-01-27T14:13:28.969Z,96280.04
2019-01-27T14:15:56.742Z,96274.41
2019-01-27T14:18:24.506Z,96272.69
2019-01-27T14:20:52.276Z,96271.68
2019-01-27T14:23:20.031Z,96275.86
2019-01-27T14:25:47.801Z,96276.95
2019-01-27T14:28:15.557Z,96278.64
2019-01-27T14:30:43.732Z,96280.52
2019-01-27T14:33:11.480Z,96292.89
2019-01-27T14:35:39.343Z,96284.48
2019-01-27T14:38:07.180Z,96287.06
2019-01-27T14:40:34.997Z,96284.31
2019-01-27T14:43:02.760Z,96287.31
2019-01-27T14:45:30.729Z,96289.09
2019-01-27T14:47:58.589Z,96287.58
2019-01-27T14:50:30.183Z,96297.52
2019-01-27T14:52:58.004Z,96297.77
2019-01-27T14:55:25.779Z,96295.82
2019-01-27T14:57:53.633Z,96297.59
2019-01-27T15:00:23.128Z,96302.62
2019-01-27T15:02:50.956Z,96305.34
2019-01-27T15:05:18.730Z,96315.27
2019-01-27T15:07:46.572Z,96320.55
2019-01-27T15:10:15.530Z,96311.33
2019-01-27T15:12:43.320Z,96316.91
2019-01-27T15:15:12.485Z,96327.74
2019-01-27T15:17:40.448Z,96332.95
2019-01-27T15:20:10.496Z,96342.64
2019-01-27T15:22:38.312Z,96348.77
2019-01-27T15:25:06.908Z,96351.77
2019-01-27T15:27:34.990Z,96365.94
2019-01-27T15:30:02.809Z,96371.77
2019-01-27T15:32:31.029Z,96385.54
2019-01-27T15:34:58.768Z,96387.70
2019-01-27T15:37:26.580Z,96404.91
2019-01-27T15:39:54.338Z,96412.14
2019-01-27T15:42:22.113Z,96418.97
2019-01-27T15:44:49.852Z,96423.14
2019-01-27T15:47:17.638Z,96434.98
2019-01-27T15:49:45.389Z,96441.01
2019-01-27T15:52:13.451Z,96442.61
2019-01-27T15:54:41.197Z,96451.80
2019-01-27T15:57:08.939Z,96472.17
2019-01-27T15:59:36.704Z,96476.42
2019-01-27T16:02:04.796Z,96490.20
2019-01-27T16:04:32.560Z,96504.16
2019-01-27T16:07:00.322Z,96508.48
2019-01-27T16:09:28.523Z,96527.15
2019-01-27T16:11:56.595Z,96533.09
2019-01-27T16:14:24.361Z,96544.97
2019-01-27T16:16:52.196Z,96551.06
2019-01-27T16:19:20.280Z,96555.59
2019-01-27T16:21:48.016Z,96558.59
2019-01-27T16:24:24.211Z,96560.51
2019-01-27T16:26:51.964Z,96557.88
2019-01-27T16:29:27.739Z,96566.64
2019-01-27T16:32:04.781Z,96577.35
2019-01-27T16:34:36.160Z,96583.05
2019-01-27T16:37:04.049Z,96586.66
2019-01-27T16:39:31.825Z,96581.67
2019-01-27T16:41:59.937Z,96599.85
2019-01-27T16:44:27.683Z,96598.09
2019-01-27T16:46:56.333Z,96610.77
2019-01-27T16:49:24.204Z,96620.58
2019-01-27T16:51:51.943Z,96632.13
2019-01-27T16:54:19.699Z,96647.25
2019-01-27T16:56:47.748Z,96650.36
2019-01-27T16:59:15.516Z,96668.00
2019-01-27T17:01:43.269Z,96673.23
2019-01-27T17:04:11.092Z,96679.53
2019-01-27T17:06:38.904Z,96678.13
2019-01-27T17:09:09.239Z,96686.45
2019-01-27T17:11:37.259Z,96681.22
2019-01-27T17:14:05.135Z,96694.44
2019-01-27T17:16:32.972Z,96695.16
2019-01-27T17:19:00.737Z,96705.04
2019-01-27T17:21:28.499Z,96702.38
2019-01-27T17:23:56.289Z,96702.29
2019-01-27T17:26:24.046Z,96712.98
2019-01-27T17:28:51.820Z,96697.27
2019-01-27T17:31:19.573Z,96714.16
2019-01-27T17:33:47.329Z,96717.29
2019-01-27T17:36:15.111Z,96731.67
2019-01-27T17:38:43.319Z,96734.76
2019-01-27T17:41:11.072Z,96736.08
2019-01-27T17:43:38.842Z,96745.37
2019-01-27T17:46:06.607Z,96746.18
2019-01-27T17:48:34.965Z,96753.43
2019-01-27T17:51:03.004Z,96757.61
2019-01-27T17:53:34.903Z,96761.53
2019-01-27T17:56:02.743Z,96765.09
2019-01-27T17:58:54.157Z,96767.36
2019-01-27T18:01:35.205Z,96770.57
2019-01-27T18:04:31.374Z,96774.23
2019-01-27T18:07:19.447Z,96770.70
2019-01-27T18:10:15.508Z,96784.11
2019-01-27T18:12:52.401Z,96784.69
2019-01-27T18:15:20.212Z,96796.73
2019-01-27T18:17:48.294Z,96800.48
2019-01-27T18:20:16.126Z,96800.13
2019-01-27T18:22:43.880Z,96813.45
2019-01-27T18:25:12.158Z,96808.92
2019-01-27T18:27:39.918Z,96803.09
2019-01-27T18:30:09.169Z,96812.59
2019-01-27T18:32:37.009Z,96818.54
2019-01-27T18:35:05.130Z,96825.72
2019-01-27T18:37:33.692Z,96835.12
2019-01-27T18:40:01.778Z,96828.30
2019-01-27T18:42:29.707Z,96833.78
2019-01-27T18:44:57.482Z,96845.58
2019-01-27T18:47:25.240Z,96854.25
2019-01-27T18:49:53.039Z,96861.52
2019-01-27T18:52:20.879Z,96864.06
2019-01-27T18:55:13.229Z,96868.63
2019-01-27T18:58:02.990Z,96860.05
2019-01-27T19:00:48.929Z,96861.55
2019-01-27T19:03:35.773Z,96858.84
2019-01-27T19:06:11.317Z,96863.94
2019-01-27T19:09:16.657Z,96875.21
2019-01-27T19:12:03.812Z,96879.50
2019-01-27T19:14:53.657Z,96884.16
2019-01-27T19:17:40.775Z,96887.65
2019-01-27T19:20:29.880Z,96890.28
2019-01-27T19:23:30.252Z,96886.69
2019-01-27T19:26:05.310Z,96889.69
2019-01-27T19:28:52.167Z,96889.88
2019-01-27T19:31:31.256Z,96895.23
2019-01-27T19:34:24.437Z,96901.52
2019-01-27T19:37:11.354Z,96899.78
2019-01-27T19:40:01.312Z,96901.80
2019-01-27T19:42:47.425Z,96908.70
2019-01-27T19:45:23.060Z,96910.98
2019-01-27T19:48:28.264Z,96906.86
2019-01-27T19:51:20.911Z,96907.19
2019-01-27T19:53:54.548Z,96913.72
2019-01-27T19:56:50.253Z,96911.69
2019-01-27T19:59:39.860Z,96919.87
2019-01-27T20:02:30.398Z,96925.72
2019-01-27T20:05:09.581Z,96917.99
2019-01-27T20:07:53.251Z,96922.14
2019-01-27T20:10:32.437Z,96926.05
2019-01-27T20:13:19.359Z,96931.98
2019-01-27T20:16:06.476Z,96932.19
2019-01-27T20:18:52.258Z,96940.31
2019-01-27T20:21:28.622Z,96944.56
2019-01-27T20:24:02.340Z,96947.73
2019-01-27T20:26:51.765Z,96943.43
2019-01-27T20:29:53.890Z,96950.05
2019-01-27T20:32:39.824Z,96948.83
2019-01-27T20:35:24.533Z,96952.37
2019-01-27T20:38:13.999Z,96950.54
2019-01-27T20:40:55.552Z,96959.55
2019-01-27T20:43:40.950Z,96951.65
2019-01-27T20:46:26.711Z,96958.66
2019-01-27T20:49:14.058Z,96962.58
2019-01-27T20:51:50.245Z,96962.73
2019-01-27T20:54:34.147Z,96964.47
2019-01-27T20:57:21.297Z,96967.81
2019-01-27T21:00:08.132Z,96964.39
2019-01-27T21:03:01.265Z,96963.20
2019-01-27T21:05:39.480Z,96962.47
2019-01-27T21:08:18.921Z,96972.47
2019-01-27T21:11:05.794Z,96970.93
2019-01-27T21:13:40.554Z,96974.28
2019-01-27T21:16:21.091Z,96974.28
2019-01-27T21:18:57.185Z,96975.47
2019-01-27T21:21:24.951Z,96971.80
2019-01-27T21:23:52.697Z,96977.86
2019-01-27T21:26:20.444Z,96976.86
2019-01-27T21:28:48.646Z,96978.44
2019-01-27T21:31:16.520Z,96974.36
2019-01-27T21:33:44.280Z,96966.50
2019-01-27T21:36:12.020Z,96975.98
2019-01-27T21:38:39.775Z,96971.47
2019-01-27T21:41:07.552Z,96978.94
2019-01-27T21:43:35.348Z,96982.59
2019-01-27T21:46:03.411Z,96978.36
2019-01-27T21:48:32.268Z,96982.91
2019-01-27T21:51:00.074Z,96980.90
2019-01-27T21:53:27.919Z,96980.63
2019-01-27T21:55:55.728Z,96977.28
2019-01-27T21:58:23.534Z,96971.01
2019-01-27T22:00:51.327Z,96977.87
2019-01-27T22:03:19.098Z,96983.94
2019-01-27T22:05:46.843Z,96985.05
2019-01-27T22:08:14.603Z,96979.33
2019-01-27T22:10:42.370Z,96979.09
2019-01-27T22:13:10.117Z,96981.02
2019-01-27T22:15:38.002Z,96982.24
2019-01-27T22:18:05.862Z,96987.44
2019-01-27T22:20:34.027Z,96993.37
2019-01-27T22:23:01.827Z,96997.61
2019-01-27T22:25:29.585Z,96992.38
2019-01-27T22:27:57.337Z,96999.38
2019-01-27T22:30:25.104Z,96995.37
2019-01-27T22:32:52.860Z,96990.13
2019-01-27T22:35:20.911Z,96994.88
2019-01-27T22:37:48.672Z,96989.17
2019-01-27T22:40:16.502Z,96999.76
2019-01-27T22:42:44.760Z,97000.02
2019-01-27T22:45:13.204Z,97005.98
2019-01-27T22:47:41.255Z,97009.03
2019-01-27T22:50:10.607Z,97003.68
2019-01-27T22:52:38.503Z,97006.19
2019-01-27T22:55:06.515Z,97011.60
2019-01-27T22:57:34.308Z,97008.74
2019-01-27T23:00:03.449Z,97005.43
2019-01-27T23:02:31.401Z,97009.27
2019-01-27T23:04:59.191Z,96996.34
2019-01-27T23:07:26.948Z,97021.20
2019-01-27T23:09:55.051Z,97025.05
2019-01-27T23:12:22.832Z,97014.84
2019-01-27T23:14:50.602Z,97015.98
2019-01-27T23:17:18.503Z,97017.52
2019-01-27T23:19:46.285Z,97015.63
2019-01-27T23:22:14.047Z,97022.45
2019-01-27T23:24:41.813Z,97029.61
2019-01-27T23:27:09.625Z,97032.78
2019-01-27T23:29:37.768Z,97035.12
2019-01-27T23:32:05.533Z,97038.72
2019-01-27T23:34:33.288Z,97040.08
2019-01-27T23:37:01.358Z,97040.77
2019-01-27T23:39:29.928Z,97042.34
2019-01-27T23:41:57.796Z,97043.08
2019-01-27T23:44:25.561Z,97042.59
2019-01-27T23:46:53.651Z,97052.64
2019-01-27T23:49:21.411Z,97052.34
2019-01-27T23:51:49.259Z,97046.00
2019-01-27T23:54:17.057Z,97049.84
2019-01-27T23:56:44.814Z,97053.48
2019-01-27T23:59:12.568Z,97054.96
